Time;durP1;ratioP1;P1;durP2;ratioP2;P2;SDS_P1;SDS_P2;PMS_P1;PMS_P2;Temp;Humidity;BMP_temperature;BMP_pressure;BME280_temperature;BME280_humidity;BME280_pressure;Samples;Min_cycle;Max_cycle;Signal;HPM_P1;HPM_P2
2024/02/29 00:02:16;;;;;;;34.53;11.57;;;;;;;-141.50;100.00;63355.56;4976200;28;20133;-87
2024/02/29 00:04:43;;;;;;;35.03;11.55;;;;;;;-141.50;100.00;63355.56;5005362;28;20096;-85
2024/02/29 00:07:09;;;;;;;34.97;11.93;;;;;;;-141.50;100.00;63355.56;5003475;28;20057;-86
2024/02/29 00:09:36;;;;;;;37.50;11.60;;;;;;;-141.50;100.00;63355.56;5002679;28;20113;-88
2024/02/29 00:12:04;;;;;;;34.83;11.77;;;;;;;-141.50;100.00;63355.56;5010044;28;20050;-88
2024/02/29 00:14:31;;;;;;;38.17;12.25;;;;;;;-141.50;100.00;63355.56;5001556;28;20045;-87
2024/02/29 00:17:00;;;;;;;39.92;11.50;;;;;;;-141.50;100.00;63355.56;5002302;28;20080;-87
2024/02/29 00:19:27;;;;;;;33.55;11.77;;;;;;;-141.50;100.00;63355.56;4993824;28;20053;-86
2024/02/29 00:21:55;;;;;;;36.15;11.13;;;;;;;-141.50;100.00;63355.56;5021806;28;20057;-87
2024/02/29 00:24:22;;;;;;;39.15;11.73;;;;;;;-141.50;100.00;63355.56;5011671;28;20046;-86
2024/02/29 00:26:48;;;;;;;32.45;10.23;;;;;;;-141.50;100.00;63355.56;4997048;28;20780;-86
2024/02/29 00:29:15;;;;;;;34.00;10.75;;;;;;;-141.50;100.00;63355.56;5012522;28;20045;-87
2024/02/29 00:31:46;;;;;;;32.30;10.70;;;;;;;-141.50;100.00;63355.56;5011793;28;20405;-86
2024/02/29 00:34:13;;;;;;;36.40;10.93;;;;;;;-141.50;100.00;63355.56;4993815;28;20065;-87
2024/02/29 00:36:40;;;;;;;29.80;10.77;;;;;;;-141.50;100.00;63355.56;5009962;28;20086;-88
2024/02/29 00:39:07;;;;;;;30.35;10.18;;;;;;;-141.50;100.00;63355.56;5011655;28;20041;-87
2024/02/29 00:41:41;;;;;;;31.17;10.05;;;;;;;-141.50;100.00;63355.56;5009835;28;20132;-86
2024/02/29 00:44:08;;;;;;;28.15;9.93;;;;;;;-141.50;100.00;63355.56;5010835;28;20261;-87
2024/02/29 00:46:37;;;;;;;29.30;10.02;;;;;;;-141.50;100.00;63355.56;4995716;28;20047;-86
2024/02/29 00:49:04;;;;;;;32.55;10.55;;;;;;;-141.50;100.00;63355.56;5007012;28;20045;-86
2024/02/29 00:51:32;;;;;;;31.85;9.98;;;;;;;-141.50;100.00;63355.56;5010096;28;20278;-85
2024/02/29 00:53:58;;;;;;;31.92;11.15;;;;;;;-141.50;100.00;63355.56;4991709;28;20069;-86
2024/02/29 00:56:25;;;;;;;31.33;10.57;;;;;;;-141.50;100.00;63355.56;5019323;28;20080;-85
2024/02/29 00:58:52;;;;;;;28.77;9.95;;;;;;;-141.50;100.00;63355.56;5014269;28;20334;-84
2024/02/29 01:01:19;;;;;;;30.20;11.00;;;;;;;-141.50;100.00;63355.56;5009400;28;20049;-86
2024/02/29 01:03:45;;;;;;;28.80;9.30;;;;;;;-141.50;100.00;63355.56;5015843;28;20073;-86
2024/02/29 01:06:12;;;;;;;29.08;10.32;;;;;;;-141.50;100.00;63355.56;5015696;28;20042;-85
2024/02/29 01:08:39;;;;;;;32.22;10.27;;;;;;;-141.50;100.00;63355.56;5011633;28;20491;-84
2024/02/29 01:11:06;;;;;;;28.67;10.15;;;;;;;-141.50;100.00;63355.56;5010895;28;20042;-85
2024/02/29 01:13:33;;;;;;;26.38;9.52;;;;;;;-141.50;100.00;63355.56;5010096;28;20065;-85
2024/02/29 01:16:00;;;;;;;34.45;10.40;;;;;;;-141.50;100.00;63355.56;5010218;28;20056;-85
2024/02/29 01:18:26;;;;;;;37.42;10.88;;;;;;;-141.50;100.00;63355.56;5010812;28;20085;-86
2024/02/29 01:20:56;;;;;;;27.83;10.63;;;;;;;-141.50;100.00;63355.56;4991002;28;20108;-85
2024/02/29 01:23:25;;;;;;;27.05;10.55;;;;;;;-141.50;100.00;63355.56;5007620;28;20081;-84
2024/02/29 01:25:51;;;;;;;33.38;11.05;;;;;;;-141.50;100.00;63355.56;5008957;28;20078;-85
2024/02/29 01:28:18;;;;;;;30.27;10.80;;;;;;;-141.50;100.00;63355.56;4988867;28;20607;-86
2024/02/29 01:30:45;;;;;;;32.75;9.80;;;;;;;-141.50;100.00;63355.56;5004939;28;20046;-85
2024/02/29 01:33:12;;;;;;;31.25;10.38;;;;;;;-141.50;100.00;63355.56;5009728;28;20077;-86
2024/02/29 01:35:39;;;;;;;32.25;10.07;;;;;;;-141.50;100.00;63355.56;5010996;28;20060;-86
2024/02/29 01:38:06;;;;;;;38.00;10.75;;;;;;;-141.50;100.00;63355.56;4992260;28;20046;-86
2024/02/29 01:40:33;;;;;;;33.60;10.63;;;;;;;-141.50;100.00;63355.56;4992292;28;20404;-86
2024/02/29 01:42:59;;;;;;;30.13;9.63;;;;;;;-141.50;100.00;63355.56;5008667;28;20050;-85
2024/02/29 01:45:26;;;;;;;27.45;9.57;;;;;;;-141.50;100.00;63355.56;4992910;28;20042;-85
2024/02/29 01:47:53;;;;;;;27.05;9.27;;;;;;;-141.50;100.00;63355.56;4991467;28;20053;-86
2024/02/29 01:50:20;;;;;;;29.60;9.65;;;;;;;-141.50;100.00;63355.56;4992063;28;20054;-85
2024/02/29 01:52:48;;;;;;;27.38;9.65;;;;;;;-141.50;100.00;63355.56;4990828;28;20042;-85
2024/02/29 01:55:15;;;;;;;32.92;9.30;;;;;;;-141.50;100.00;63355.56;4993822;28;20316;-86
2024/02/29 01:57:43;;;;;;;24.17;8.77;;;;;;;-141.50;100.00;63355.56;4988187;28;20061;-85
2024/02/29 02:00:11;;;;;;;31.42;9.80;;;;;;;-141.50;100.00;63355.56;5001987;28;20053;-85
2024/02/29 02:02:38;;;;;;;28.15;8.93;;;;;;;-141.50;100.00;63355.56;5003091;28;20053;-86
2024/02/29 02:05:06;;;;;;;27.80;9.13;;;;;;;-141.50;100.00;63355.56;4989799;28;20522;-84
2024/02/29 02:07:37;;;;;;;26.48;9.23;;;;;;;-141.50;100.00;63355.56;5008006;28;20042;-85
2024/02/29 02:10:06;;;;;;;27.00;9.45;;;;;;;-141.50;100.00;63355.56;5000912;28;20043;-85
2024/02/29 02:12:34;;;;;;;28.90;9.07;;;;;;;-141.50;100.00;63355.56;4995637;28;20054;-84
2024/02/29 02:15:02;;;;;;;25.15;8.85;;;;;;;-141.50;100.00;63355.56;5010787;28;20136;-86
2024/02/29 02:17:32;;;;;;;31.63;9.32;;;;;;;-141.50;100.00;63355.56;5012583;28;20054;-85
2024/02/29 02:20:00;;;;;;;23.75;8.07;;;;;;;-141.50;100.00;63355.56;5011879;28;20046;-86
2024/02/29 02:22:28;;;;;;;23.80;8.52;;;;;;;-141.50;100.00;63355.56;4989074;28;20285;-85
2024/02/29 02:24:55;;;;;;;30.40;8.75;;;;;;;-141.50;100.00;63355.56;5012736;28;20054;-85
2024/02/29 02:27:22;;;;;;;23.25;9.00;;;;;;;-141.50;100.00;63355.56;4996284;28;20581;-85
2024/02/29 02:29:48;;;;;;;21.02;7.97;;;;;;;-141.50;100.00;63355.56;5011709;28;20060;-85
2024/02/29 02:32:15;;;;;;;25.40;8.45;;;;;;;-141.50;100.00;63355.56;4996680;28;20062;-84
2024/02/29 02:34:42;;;;;;;28.80;9.15;;;;;;;-141.50;100.00;63355.56;4999020;28;20058;-85
2024/02/29 02:37:09;;;;;;;25.25;8.57;;;;;;;-141.50;100.00;63355.56;5012707;28;20089;-85
2024/02/29 02:39:36;;;;;;;26.50;8.60;;;;;;;-141.50;100.00;63355.56;5006134;28;20045;-85
2024/02/29 02:42:03;;;;;;;22.33;8.35;;;;;;;-141.50;100.00;63355.56;5011546;28;20460;-85
2024/02/29 02:44:30;;;;;;;25.52;7.90;;;;;;;-141.50;100.00;63355.56;5013949;28;20055;-84
2024/02/29 02:46:57;;;;;;;24.17;9.05;;;;;;;-141.50;100.00;63355.56;5011601;28;20060;-86
2024/02/29 02:49:24;;;;;;;23.63;8.77;;;;;;;-141.50;100.00;63355.56;5011629;28;20078;-85
2024/02/29 02:51:51;;;;;;;21.50;7.50;;;;;;;-141.50;100.00;63355.56;4993927;28;20058;-85
2024/02/29 02:54:17;;;;;;;24.90;8.15;;;;;;;-141.50;100.00;63355.56;4994716;28;20519;-84
2024/02/29 02:56:44;;;;;;;24.92;8.35;;;;;;;-141.50;100.00;63355.56;4992694;28;20456;-84
2024/02/29 02:59:11;;;;;;;21.13;8.02;;;;;;;-141.50;100.00;63355.56;5009854;28;20507;-85
2024/02/29 03:01:38;;;;;;;22.65;8.02;;;;;;;-141.50;100.00;63355.56;4996819;28;20054;-85
2024/02/29 03:04:04;;;;;;;23.08;7.50;;;;;;;-141.50;100.00;63355.56;4992931;28;20072;-84
2024/02/29 03:06:31;;;;;;;21.80;6.55;;;;;;;-141.50;100.00;63355.56;5013783;28;20140;-84
2024/02/29 03:08:58;;;;;;;26.17;7.60;;;;;;;-141.50;100.00;63355.56;5010490;28;20448;-85
2024/02/29 03:11:25;;;;;;;20.52;7.05;;;;;;;-141.50;100.00;63355.56;5012257;28;20532;-84
2024/02/29 03:13:53;;;;;;;26.95;7.55;;;;;;;-141.50;100.00;63355.56;4991432;28;20045;-85
2024/02/29 03:16:22;;;;;;;17.27;6.93;;;;;;;-141.50;100.00;63355.56;5011131;28;20072;-85
2024/02/29 03:18:49;;;;;;;27.75;7.75;;;;;;;-141.50;100.00;63355.56;5010774;28;20440;-85
2024/02/29 03:21:16;;;;;;;22.70;7.38;;;;;;;-141.50;100.00;63355.56;5010937;28;20053;-85
2024/02/29 03:23:43;;;;;;;16.45;7.03;;;;;;;-141.50;100.00;63355.56;5010135;28;20148;-84
2024/02/29 03:26:10;;;;;;;19.75;7.53;;;;;;;-141.50;100.00;63355.56;4993822;28;20609;-84
2024/02/29 03:28:37;;;;;;;23.90;7.85;;;;;;;-141.50;100.00;63355.56;4992431;28;20054;-84
2024/02/29 03:31:03;;;;;;;20.38;7.70;;;;;;;-141.50;100.00;63355.56;5000377;28;20463;-85
2024/02/29 03:33:30;;;;;;;18.33;7.32;;;;;;;-141.50;100.00;63355.56;4993013;28;20137;-85
2024/02/29 03:35:57;;;;;;;19.75;6.55;;;;;;;-141.50;100.00;63355.56;5008639;28;20155;-85
2024/02/29 03:38:24;;;;;;;20.48;7.20;;;;;;;-141.50;100.00;63355.56;4992286;28;20064;-84
2024/02/29 03:40:51;;;;;;;21.30;7.20;;;;;;;-141.50;100.00;63355.56;5007926;28;20503;-85
2024/02/29 03:43:18;;;;;;;21.48;7.95;;;;;;;-141.50;100.00;63355.56;5008748;28;20062;-85
2024/02/29 03:45:45;;;;;;;22.88;8.05;;;;;;;-141.50;100.00;63355.56;5008349;28;20057;-85
2024/02/29 03:48:12;;;;;;;22.60;7.60;;;;;;;-141.50;100.00;63355.56;4991006;28;20058;-84
2024/02/29 03:50:40;;;;;;;24.98;7.72;;;;;;;-141.50;100.00;63355.56;5008497;28;20526;-84
2024/02/29 03:53:06;;;;;;;22.13;7.75;;;;;;;-141.50;100.00;63355.56;5006346;28;20064;-84
2024/02/29 03:55:34;;;;;;;19.55;7.65;;;;;;;-141.50;100.00;63355.56;5005400;28;20503;-85
2024/02/29 03:58:03;;;;;;;20.98;7.47;;;;;;;-141.50;100.00;63355.56;4991232;28;20049;-84
2024/02/29 04:00:30;;;;;;;19.25;6.55;;;;;;;-141.50;100.00;63355.56;4997284;28;20073;-85
2024/02/29 04:02:57;;;;;;;21.10;6.88;;;;;;;-141.50;100.00;63355.56;4991427;28;20141;-85
2024/02/29 04:05:24;;;;;;;20.80;7.00;;;;;;;-141.50;100.00;63355.56;4991979;28;20069;-85
2024/02/29 04:07:53;;;;;;;17.85;7.07;;;;;;;-141.50;100.00;63355.56;4992002;28;20133;-84
2024/02/29 04:10:20;;;;;;;20.40;7.68;;;;;;;-141.50;100.00;63355.56;5003257;28;20061;-85
2024/02/29 04:12:47;;;;;;;20.45;7.47;;;;;;;-141.50;100.00;63355.56;5009996;28;20486;-86
2024/02/29 04:15:16;;;;;;;22.30;7.20;;;;;;;-141.50;100.00;63355.56;4993439;28;20062;-83
2024/02/29 04:17:43;;;;;;;17.55;6.45;;;;;;;-141.50;100.00;63355.56;5011061;28;20064;-84
2024/02/29 04:20:10;;;;;;;21.75;7.00;;;;;;;-141.50;100.00;63355.56;5010903;28;20093;-86
2024/02/29 04:22:38;;;;;;;20.10;7.40;;;;;;;-141.50;100.00;63355.56;5010804;28;20054;-83
2024/02/29 04:25:06;;;;;;;19.35;6.60;;;;;;;-141.50;100.00;63355.56;4997779;28;20057;-84
2024/02/29 04:27:33;;;;;;;20.27;6.40;;;;;;;-141.50;100.00;63355.56;5005537;28;20054;-84
2024/02/29 04:30:00;;;;;;;16.35;6.60;;;;;;;-141.50;100.00;63355.56;4994133;28;20468;-85
2024/02/29 04:32:27;;;;;;;20.10;6.60;;;;;;;-141.50;100.00;63355.56;5009435;28;20061;-84
2024/02/29 04:34:54;;;;;;;18.85;6.45;;;;;;;-141.50;100.00;63355.56;5008527;28;20112;-84
2024/02/29 04:37:20;;;;;;;20.05;6.45;;;;;;;-141.50;100.00;63355.56;4991294;28;20088;-83
2024/02/29 04:39:47;;;;;;;18.75;6.95;;;;;;;-141.50;100.00;63355.56;5008815;28;20057;-85
2024/02/29 04:42:15;;;;;;;17.60;6.10;;;;;;;-141.50;100.00;63355.56;5009126;28;20054;-85
2024/02/29 04:44:42;;;;;;;19.42;6.63;;;;;;;-141.50;100.00;63355.56;4994232;28;20064;-85
2024/02/29 04:47:09;;;;;;;16.17;6.70;;;;;;;-141.50;100.00;63355.56;5000459;28;20046;-85
2024/02/29 04:49:35;;;;;;;22.30;6.88;;;;;;;-141.50;100.00;63355.56;4985242;28;20104;-83
2024/02/29 04:52:03;;;;;;;18.92;6.53;;;;;;;-141.50;100.00;63355.56;4992663;28;20053;-84
2024/02/29 04:54:29;;;;;;;18.40;6.25;;;;;;;-141.50;100.00;63355.56;5008754;28;20137;-85
2024/02/29 04:56:57;;;;;;;22.90;7.00;;;;;;;-141.50;100.00;63355.56;5020155;28;20055;-84
2024/02/29 04:59:24;;;;;;;18.88;6.30;;;;;;;-141.50;100.00;63355.56;5016195;28;20048;-83
2024/02/29 05:01:50;;;;;;;17.85;6.57;;;;;;;-141.50;100.00;63355.56;4993333;28;20046;-84
2024/02/29 05:04:17;;;;;;;16.63;6.55;;;;;;;-141.50;100.00;63355.56;4983476;28;20517;-84
2024/02/29 05:06:45;;;;;;;17.58;6.25;;;;;;;-141.50;100.00;63355.56;5008611;28;20496;-84
2024/02/29 05:09:11;;;;;;;18.08;5.90;;;;;;;-141.50;100.00;63355.56;5004460;28;20072;-83
2024/02/29 05:11:38;;;;;;;18.75;5.45;;;;;;;-141.50;100.00;63355.56;5009112;28;20045;-83
2024/02/29 05:14:05;;;;;;;14.05;5.85;;;;;;;-141.50;100.00;63355.56;4982632;28;20685;-83
2024/02/29 05:16:32;;;;;;;13.48;5.00;;;;;;;-141.50;100.00;63355.56;4990180;28;20080;-83
2024/02/29 05:18:59;;;;;;;14.35;5.45;;;;;;;-141.50;100.00;63355.56;4987886;28;20397;-84
2024/02/29 05:21:25;;;;;;;13.02;5.07;;;;;;;-141.50;100.00;63355.56;4991223;28;20115;-83
2024/02/29 05:23:52;;;;;;;16.33;5.40;;;;;;;-141.50;100.00;63355.56;5008646;28;20062;-84
2024/02/29 05:26:19;;;;;;;15.77;5.85;;;;;;;-141.50;100.00;63355.56;5008583;28;20149;-82
2024/02/29 05:28:47;;;;;;;16.88;6.22;;;;;;;-141.50;100.00;63355.56;5010845;28;20053;-81
2024/02/29 05:31:13;;;;;;;13.85;5.75;;;;;;;-141.50;100.00;63355.56;5009328;28;20058;-79
2024/02/29 05:33:41;;;;;;;15.82;5.28;;;;;;;-141.50;100.00;63355.56;5008856;28;20046;-80
2024/02/29 05:36:08;;;;;;;15.57;6.45;;;;;;;-141.50;100.00;63355.56;4984750;28;20100;-81
2024/02/29 05:38:35;;;;;;;19.58;6.05;;;;;;;-141.50;100.00;63355.56;5006302;28;20058;-78
2024/02/29 05:41:03;;;;;;;17.20;5.90;;;;;;;-141.50;100.00;63355.56;4989166;28;20065;-81
2024/02/29 05:43:30;;;;;;;15.05;5.85;;;;;;;-141.50;100.00;63355.56;4978958;28;20133;-79
2024/02/29 05:46:01;;;;;;;14.07;5.47;;;;;;;-141.50;100.00;63355.56;4981016;28;20042;-80
2024/02/29 05:48:29;;;;;;;21.88;5.90;;;;;;;-141.50;100.00;63355.56;5014633;28;20050;-80
2024/02/29 05:50:57;;;;;;;18.23;6.50;;;;;;;-141.50;100.00;63355.56;4990484;28;20060;-81
2024/02/29 05:53:24;;;;;;;15.48;5.50;;;;;;;-141.50;100.00;63355.56;5008849;28;20085;-82
2024/02/29 05:55:51;;;;;;;12.70;5.43;;;;;;;-141.50;100.00;63355.56;5017908;28;20137;-81
2024/02/29 05:58:18;;;;;;;17.08;5.75;;;;;;;-141.50;100.00;63355.56;4984094;28;20050;-80
2024/02/29 06:00:45;;;;;;;15.05;5.72;;;;;;;-141.50;100.00;63355.56;4993925;28;20049;-81
2024/02/29 06:03:12;;;;;;;18.42;6.43;;;;;;;-141.50;100.00;63355.56;5010051;28;20451;-80
2024/02/29 06:05:39;;;;;;;18.90;6.25;;;;;;;-141.50;100.00;63355.56;5004897;28;20054;-82
2024/02/29 06:08:05;;;;;;;13.93;5.45;;;;;;;-141.50;100.00;63355.56;4986212;28;20050;-81
2024/02/29 06:10:32;;;;;;;16.73;6.10;;;;;;;-141.50;100.00;63355.56;4992955;28;20081;-80
2024/02/29 06:12:59;;;;;;;20.10;6.00;;;;;;;-141.50;100.00;63355.56;5009913;28;20084;-83
2024/02/29 06:15:26;;;;;;;13.90;5.40;;;;;;;-141.50;100.00;63355.56;4991348;28;20466;-80
2024/02/29 06:17:55;;;;;;;16.15;5.93;;;;;;;-141.50;100.00;63355.56;4992802;28;20061;-81
2024/02/29 06:20:22;;;;;;;15.93;5.93;;;;;;;-141.50;100.00;63355.56;5010555;28;20413;-77
2024/02/29 06:22:49;;;;;;;18.50;5.50;;;;;;;-141.50;100.00;63355.56;5010146;28;20050;-82
2024/02/29 06:25:17;;;;;;;15.95;5.40;;;;;;;-141.50;100.00;63355.56;5010276;28;20389;-80
2024/02/29 06:27:44;;;;;;;17.27;5.97;;;;;;;-141.50;100.00;63355.56;4992671;28;20070;-80
2024/02/29 06:30:11;;;;;;;14.90;5.50;;;;;;;-141.50;100.00;63355.56;4991865;28;20397;-81
2024/02/29 06:32:43;;;;;;;17.30;6.35;;;;;;;-141.50;100.00;63355.56;4993953;28;20072;-78
2024/02/29 06:35:10;;;;;;;14.18;6.00;;;;;;;-141.50;100.00;63355.56;4990250;28;20103;-84
2024/02/29 06:37:41;;;;;;;14.75;5.80;;;;;;;-141.50;100.00;63355.56;4989583;28;20579;-81
2024/02/29 06:40:10;;;;;;;19.30;7.22;;;;;;;-141.50;100.00;63355.56;4986216;28;20052;-81
2024/02/29 06:42:38;;;;;;;17.40;6.50;;;;;;;-141.50;100.00;63355.56;4993320;28;20079;-82
2024/02/29 06:45:05;;;;;;;21.00;7.28;;;;;;;-141.50;100.00;63355.56;4993343;28;20528;-82
2024/02/29 06:47:33;;;;;;;22.73;6.95;;;;;;;-141.50;100.00;63355.56;4993267;28;20056;-83
2024/02/29 06:50:00;;;;;;;18.23;7.05;;;;;;;-141.50;100.00;63355.56;4993240;28;20049;-82
2024/02/29 06:52:27;;;;;;;24.42;7.88;;;;;;;-141.50;100.00;63355.56;5007829;28;20113;-81
2024/02/29 06:54:54;;;;;;;24.30;8.38;;;;;;;-141.50;100.00;63355.56;4994953;28;20066;-82
2024/02/29 06:57:20;;;;;;;28.90;7.72;;;;;;;-141.50;100.00;63355.56;5016524;28;20104;-81
2024/02/29 06:59:47;;;;;;;20.90;7.28;;;;;;;-141.50;100.00;63355.56;4996454;28;20054;-81
2024/02/29 07:02:18;;;;;;;31.55;9.02;;;;;;;-141.50;100.00;63355.56;5001622;28;20528;-81
2024/02/29 07:04:45;;;;;;;28.67;9.25;;;;;;;-141.50;100.00;63355.56;4992083;28;20058;-81
2024/02/29 07:07:12;;;;;;;40.20;9.82;;;;;;;-141.50;100.00;63355.56;4991826;28;20293;-80
2024/02/29 07:09:42;;;;;;;33.75;9.98;;;;;;;-141.50;100.00;63355.56;5016693;28;20105;-79
2024/02/29 07:12:09;;;;;;;39.33;11.15;;;;;;;-141.50;100.00;63355.56;5003692;28;20050;-80
2024/02/29 07:14:36;;;;;;;39.67;10.73;;;;;;;-141.50;100.00;63355.56;5017671;28;20054;-83
2024/02/29 07:17:05;;;;;;;32.33;10.35;;;;;;;-141.50;100.00;63355.56;5010216;28;20081;-83
2024/02/29 07:19:32;;;;;;;44.72;11.23;;;;;;;-141.50;100.00;63355.56;5009206;28;20120;-82
2024/02/29 07:21:59;;;;;;;37.17;10.35;;;;;;;-141.50;100.00;63355.56;5011653;28;20054;-81
2024/02/29 07:24:26;;;;;;;38.15;10.88;;;;;;;-141.50;100.00;63355.56;5009970;28;20037;-79
2024/02/29 07:26:53;;;;;;;37.72;10.75;;;;;;;-141.50;100.00;63355.56;4994970;28;20427;-82
2024/02/29 07:29:20;;;;;;;31.23;10.43;;;;;;;-141.50;100.00;63355.56;5011150;28;20111;-82
2024/02/29 07:31:47;;;;;;;34.33;9.65;;;;;;;-141.50;100.00;63355.56;4996071;28;20054;-83
2024/02/29 07:34:16;;;;;;;27.63;9.07;;;;;;;-141.50;100.00;63355.56;4995091;28;20136;-81
2024/02/29 07:36:44;;;;;;;28.20;9.75;;;;;;;-141.50;100.00;63355.56;5016781;28;20073;-82
2024/02/29 07:39:14;;;;;;;27.00;9.43;;;;;;;-141.50;100.00;63355.56;5016176;28;20054;-82
2024/02/29 07:41:41;;;;;;;26.52;9.00;;;;;;;-141.50;100.00;63355.56;5008347;28;20073;-83
2024/02/29 07:44:07;;;;;;;24.73;8.82;;;;;;;-141.50;100.00;63355.56;4991484;28;20046;-82
2024/02/29 07:46:35;;;;;;;25.95;8.77;;;;;;;-141.50;100.00;63355.56;5008447;28;20077;-80
2024/02/29 07:49:02;;;;;;;22.08;8.25;;;;;;;-141.50;100.00;63355.56;4991277;28;20469;-80
2024/02/29 07:51:29;;;;;;;21.27;9.15;;;;;;;-141.50;100.00;63355.56;4996581;28;20048;-82
2024/02/29 07:53:55;;;;;;;21.27;7.90;;;;;;;-141.50;100.00;63355.56;4993912;28;20050;-82
2024/02/29 07:56:22;;;;;;;19.77;7.55;;;;;;;-141.50;100.00;63355.56;5006021;28;20429;-81
2024/02/29 07:58:50;;;;;;;29.35;9.48;;;;;;;-141.50;100.00;63355.56;5006864;28;20081;-82
2024/02/29 08:01:17;;;;;;;119.15;23.73;;;;;;;-141.50;100.00;63355.56;5006817;28;20069;-81
2024/02/29 08:03:44;;;;;;;87.95;19.10;;;;;;;-141.50;100.00;63355.56;4994189;28;20563;-82
2024/02/29 08:06:11;;;;;;;90.25;19.45;;;;;;;-141.50;100.00;63355.56;5006813;28;20049;-82
2024/02/29 08:08:38;;;;;;;103.85;21.70;;;;;;;-141.50;100.00;63355.56;4988554;28;20116;-81
2024/02/29 08:11:05;;;;;;;62.58;16.27;;;;;;;-141.50;100.00;63355.56;5005514;28;20570;-81
2024/02/29 08:13:32;;;;;;;37.55;11.55;;;;;;;-141.50;100.00;63355.56;5005975;28;20054;-81
2024/02/29 08:15:59;;;;;;;40.63;13.60;;;;;;;-141.50;100.00;63355.56;5005799;28;20049;-80
2024/02/29 08:18:26;;;;;;;44.63;14.50;;;;;;;-141.50;100.00;63355.56;4988428;28;20038;-79
2024/02/29 08:20:53;;;;;;;80.68;20.85;;;;;;;-141.50;100.00;63355.56;4990918;28;20057;-82
2024/02/29 08:23:19;;;;;;;87.72;21.45;;;;;;;-141.50;100.00;63355.56;4988660;28;20518;-80
2024/02/29 08:25:46;;;;;;;91.57;23.30;;;;;;;-141.50;100.00;63355.56;5015133;28;20081;-82
2024/02/29 08:28:13;;;;;;;84.03;20.33;;;;;;;-141.50;100.00;63355.56;5007997;28;20069;-81
2024/02/29 08:30:39;;;;;;;103.82;23.55;;;;;;;-141.50;100.00;63355.56;4997280;28;20062;-81
2024/02/29 08:33:06;;;;;;;67.85;18.90;;;;;;;-141.50;100.00;63355.56;5006409;28;20634;-81
2024/02/29 08:35:33;;;;;;;57.85;17.30;;;;;;;-141.50;100.00;63355.56;5007608;28;20061;-80
2024/02/29 08:38:00;;;;;;;57.28;15.52;;;;;;;-141.50;100.00;63355.56;5005527;28;20401;-81
2024/02/29 08:40:27;;;;;;;39.95;14.90;;;;;;;-141.50;100.00;63355.56;4988326;28;20052;-80
2024/02/29 08:42:53;;;;;;;43.60;15.68;;;;;;;-141.50;100.00;63355.56;5006176;28;20049;-80
2024/02/29 08:45:20;;;;;;;39.92;15.77;;;;;;;-141.50;100.00;63355.56;5000420;28;20054;-79
2024/02/29 08:47:49;;;;;;;36.22;12.85;;;;;;;-141.50;100.00;63355.56;4988056;28;20053;-79
2024/02/29 08:50:16;;;;;;;29.85;11.55;;;;;;;-141.50;100.00;63355.56;4997114;28;20052;-80
2024/02/29 08:52:43;;;;;;;28.60;12.10;;;;;;;-141.50;100.00;63355.56;4974801;28;20053;-82
2024/02/29 08:55:09;;;;;;;33.08;12.20;;;;;;;-141.50;100.00;63355.56;4990287;28;20120;-79
2024/02/29 08:57:36;;;;;;;30.13;12.85;;;;;;;-141.50;100.00;63355.56;5006009;28;20064;-82
2024/02/29 09:00:05;;;;;;;27.48;11.57;;;;;;;-141.50;100.00;63355.56;5006024;28;20528;-81
2024/02/29 09:02:32;;;;;;;25.80;11.52;;;;;;;-141.50;100.00;63355.56;5006248;28;20500;-79
2024/02/29 09:04:58;;;;;;;24.38;10.88;;;;;;;-141.50;100.00;63355.56;5008601;28;20157;-81
2024/02/29 09:07:25;;;;;;;24.70;11.38;;;;;;;-141.50;100.00;63355.56;4992186;28;20072;-80
2024/02/29 09:09:52;;;;;;;28.25;12.30;;;;;;;-141.50;100.00;63355.56;5006206;28;20141;-81
2024/02/29 09:12:19;;;;;;;21.23;11.38;;;;;;;-141.50;100.00;63355.56;5009580;28;20068;-80
2024/02/29 09:14:46;;;;;;;27.30;11.68;;;;;;;-141.50;100.00;63355.56;4992470;28;20523;-81
2024/02/29 09:17:13;;;;;;;26.27;12.48;;;;;;;-141.50;100.00;63355.56;5009259;28;20325;-81
2024/02/29 09:19:40;;;;;;;25.75;11.25;;;;;;;-141.50;100.00;63355.56;5008914;28;20060;-82
2024/02/29 09:22:09;;;;;;;24.63;11.57;;;;;;;-141.50;100.00;63355.56;4990096;28;20069;-82
2024/02/29 09:24:36;;;;;;;24.08;11.63;;;;;;;-141.50;100.00;63355.56;4989426;28;20553;-81
2024/02/29 09:27:04;;;;;;;22.77;10.63;;;;;;;-141.50;100.00;63355.56;4974728;28;20054;-82
2024/02/29 09:29:31;;;;;;;23.98;10.57;;;;;;;-141.50;100.00;63355.56;5005341;28;20516;-81
2024/02/29 09:32:02;;;;;;;24.45;10.85;;;;;;;-141.50;100.00;63355.56;5006001;28;20527;-81
2024/02/29 09:34:30;;;;;;;18.80;9.45;;;;;;;-141.50;100.00;63355.56;4996231;28;20256;-81
2024/02/29 09:37:04;;;;;;;20.75;10.30;;;;;;;-141.50;100.00;63355.56;4988827;28;20058;-80
2024/02/29 09:39:31;;;;;;;21.10;10.50;;;;;;;-141.50;100.00;63355.56;5005018;28;20050;-80
2024/02/29 09:41:58;;;;;;;24.45;10.15;;;;;;;-141.50;100.00;63355.56;5006389;28;20092;-81
2024/02/29 09:44:40;;;;;;;19.77;9.93;;;;;;;-141.50;100.00;63355.56;5005580;28;20144;-82
2024/02/29 09:47:08;;;;;;;17.08;9.50;;;;;;;-141.50;100.00;63355.56;5012670;28;20029;-81
2024/02/29 09:49:35;;;;;;;19.30;9.90;;;;;;;-141.50;100.00;63355.56;4986384;28;20100;-82
2024/02/29 09:52:03;;;;;;;16.75;8.90;;;;;;;-141.50;100.00;63355.56;4982909;28;20054;-80
2024/02/29 09:54:34;;;;;;;20.17;8.85;;;;;;;-141.50;100.00;63355.56;5001547;28;20053;-83
2024/02/29 09:57:01;;;;;;;18.33;8.70;;;;;;;-141.50;100.00;63355.56;5005005;28;20034;-81
2024/02/29 09:59:30;;;;;;;17.52;8.60;;;;;;;-141.50;100.00;63355.56;4987250;28;20049;-80
2024/02/29 10:01:57;;;;;;;19.98;8.95;;;;;;;-141.50;100.00;63355.56;4995397;28;20137;-83
2024/02/29 10:04:26;;;;;;;15.23;8.35;;;;;;;-141.50;100.00;63355.56;4994518;28;20646;-82
2024/02/29 10:06:54;;;;;;;16.30;8.45;;;;;;;-141.50;100.00;63355.56;5013249;28;20057;-82
2024/02/29 10:09:21;;;;;;;16.15;8.38;;;;;;;-141.50;100.00;63355.56;5010390;28;20056;-81
2024/02/29 10:11:48;;;;;;;15.98;8.20;;;;;;;-141.50;100.00;63355.56;4993610;28;20054;-82
2024/02/29 10:14:20;;;;;;;16.38;8.30;;;;;;;-141.50;100.00;63355.56;5010297;28;20069;-81
2024/02/29 10:16:53;;;;;;;15.00;8.68;;;;;;;-141.50;100.00;63355.56;5006312;28;20054;-80
2024/02/29 10:19:21;;;;;;;14.68;8.25;;;;;;;-141.50;100.00;63355.56;5009565;28;20050;-81
2024/02/29 10:21:49;;;;;;;15.43;8.20;;;;;;;-141.50;100.00;63355.56;4994436;28;20524;-80
2024/02/29 10:24:22;;;;;;;15.43;7.72;;;;;;;-141.50;100.00;63355.56;5010654;28;20506;-79
2024/02/29 10:26:49;;;;;;;14.65;8.18;;;;;;;-141.50;100.00;63355.56;5010293;28;20061;-80
2024/02/29 10:29:19;;;;;;;17.00;9.00;;;;;;;-141.50;100.00;63355.56;4994028;28;20042;-82
2024/02/29 10:31:49;;;;;;;17.90;9.25;;;;;;;-141.50;100.00;63355.56;5001980;28;20057;-81
2024/02/29 10:34:19;;;;;;;16.20;8.40;;;;;;;-141.50;100.00;63355.56;4989823;28;20061;-82
2024/02/29 10:36:48;;;;;;;18.25;8.13;;;;;;;-141.50;100.00;63355.56;4987439;28;20050;-82
2024/02/29 10:39:15;;;;;;;17.15;8.68;;;;;;;-141.50;100.00;63355.56;4991987;28;20049;-80
2024/02/29 10:41:49;;;;;;;16.50;8.57;;;;;;;-141.50;100.00;63355.56;5009981;28;20074;-82
2024/02/29 10:44:21;;;;;;;14.85;8.20;;;;;;;-141.50;100.00;63355.56;4994258;28;20397;-82
2024/02/29 10:46:51;;;;;;;17.55;8.75;;;;;;;-141.50;100.00;63355.56;5002035;28;20416;-81
2024/02/29 10:49:35;;;;;;;14.55;8.13;;;;;;;-141.50;100.00;63355.56;5010906;28;20050;-79
2024/02/29 10:52:07;;;;;;;14.95;8.43;;;;;;;-141.50;100.00;63355.56;4994495;28;20073;-80
2024/02/29 10:55:04;;;;;;;16.58;9.07;;;;;;;-141.50;100.00;63355.56;4992254;28;20129;-82
2024/02/29 10:57:52;;;;;;;17.58;8.75;;;;;;;-141.50;100.00;63355.56;4989788;28;20535;-82
2024/02/29 11:00:19;;;;;;;16.98;8.73;;;;;;;-141.50;100.00;63355.56;5004423;28;20063;-82
2024/02/29 11:02:47;;;;;;;14.10;7.47;;;;;;;-141.50;100.00;63355.56;5014277;28;20064;-84